^^
Saratoga-Weather Station Historical Data
 
Daily Summary for July 16, 2019 Units:  English    Metric   Both
Daily Weekly Monthly Yearly Custom
  Current: High: Low: Average:
Temperature: 80.9 °F 91.6 °F 71.5 °F 81.8 °F
Dew Point: 70.6 °F 76 °F 68.4 °F 71.4 °F
Humidity: 71% 94% 51% 73%
Wind Speed: 0mph 6mph 0mph 1.4mph
Wind Gust: 0mph 15mph - -
WindCalm - - South
Pressure: 30.03 in 30.09 in 29.99 in -
Precipitation: 0 in      
Historical Graphs
 
 
Tabular Data for July 16, 2019
Time Temperature Dew Point Pressure Wind Wind Speed Wind Gust Humidity Rainfall Rate (Hourly) solar
00:00 75.4 °F 70.6 °F 30.06 in Calm     85% 0 in 0.00 W/m2
00:05 75.2 °F 70.4 °F 30.05 in Calm     85% 0 in 0.00 W/m2
00:10 75.1 °F 70.3 °F 30.05 in Calm     85% 0 in 0.00 W/m2
00:15 75 °F 70.2 °F 30.05 in Calm     85% 0 in 0.00 W/m2
00:20 74.9 °F 70.1 °F 30.05 in Calm   1 mph 85% 0 in 0.00 W/m2
00:25 74.8 °F 70.3 °F 30.05 in Calm   3 mph 86% 0 in 0.00 W/m2
00:30 74.7 °F 70.2 °F 30.05 in Calm     86% 0 in 0.00 W/m2
00:35 74.6 °F 70.1 °F 30.05 in Calm     86% 0 in 0.00 W/m2
00:40 74.6 °F 70.1 °F 30.05 in Calm     86% 0 in 0.00 W/m2
00:45 74.4 °F 69.9 °F 30.05 in Calm   1 mph 86% 0 in 0.00 W/m2
00:50 74.4 °F 69.9 °F 30.05 in SSE 1 mph 3 mph 86% 0 in 0.00 W/m2
00:55 74.3 °F 70.2 °F 30.05 in Calm   2 mph 87% 0 in 0.00 W/m2
01:00 74.2 °F 70.1 °F 30.04 in Calm   3 mph 87% 0 in 0.00 W/m2
01:05 74.1 °F 70 °F 30.04 in Calm   1 mph 87% 0 in 0.00 W/m2
01:10 74 °F 69.9 °F 30.04 in Calm     87% 0 in 0.00 W/m2
01:15 73.9 °F 69.8 °F 30.04 in Calm     87% 0 in 0.00 W/m2
01:20 73.8 °F 69.7 °F 30.04 in Calm   1 mph 87% 0 in 0.00 W/m2
01:25 73.7 °F 69.6 °F 30.04 in Calm     87% 0 in 0.00 W/m2
01:30 73.5 °F 69.4 °F 30.04 in Calm     87% 0 in 0.00 W/m2
01:35 73.4 °F 69.3 °F 30.04 in Calm     87% 0 in 0.00 W/m2
01:40 73.3 °F 69.2 °F 30.04 in Calm     87% 0 in 0.00 W/m2
01:45 73.1 °F 69 °F 30.04 in Calm     87% 0 in 0.00 W/m2
01:50 73 °F 68.9 °F 30.04 in Calm     87% 0 in 0.00 W/m2
01:55 73 °F 68.9 °F 30.04 in Calm     87% 0 in 0.00 W/m2
02:00 72.9 °F 68.8 °F 30.04 in Calm     87% 0 in 0.00 W/m2
02:05 72.8 °F 69 °F 30.04 in Calm     88% 0 in 0.00 W/m2
02:10 72.6 °F 68.8 °F 30.04 in Calm     88% 0 in 0.00 W/m2
02:15 72.6 °F 68.8 °F 30.03 in Calm     88% 0 in 0.00 W/m2
02:20 72.5 °F 68.7 °F 30.04 in Calm     88% 0 in 0.00 W/m2
02:25 72.4 °F 68.6 °F 30.03 in Calm     88% 0 in 0.00 W/m2
02:30 72.3 °F 68.5 °F 30.03 in Calm     88% 0 in 0.00 W/m2
02:35 72.2 °F 68.4 °F 30.04 in Calm     88% 0 in 0.00 W/m2
02:40 72.2 °F 68.8 °F 30.04 in Calm     89% 0 in 0.00 W/m2
02:45 72.2 °F 69.1 °F 30.03 in Calm     90% 0 in 0.00 W/m2
02:50 72.3 °F 69.2 °F 30.04 in Calm     90% 0 in 0.00 W/m2
02:55 72.2 °F 69.1 °F 30.04 in Calm     90% 0 in 0.00 W/m2
03:00 72.3 °F 69.5 °F 30.03 in Calm   2 mph 91% 0 in 0.00 W/m2
03:05 72.4 °F 69.6 °F 30.03 in Calm   2 mph 91% 0 in 0.00 W/m2
03:10 72.4 °F 69.6 °F 30.03 in Calm   2 mph 91% 0 in 0.00 W/m2
03:15 72.4 °F 69.6 °F 30.04 in Calm     91% 0 in 0.00 W/m2
03:20 72.4 °F 69.6 °F 30.04 in Calm     91% 0 in 0.00 W/m2
03:25 72.4 °F 69.6 °F 30.04 in Calm     91% 0 in 0.00 W/m2
03:30 72.4 °F 69.6 °F 30.03 in Calm     91% 0 in 0.00 W/m2
03:35 72.3 °F 69.5 °F 30.03 in Calm     91% 0 in 0.00 W/m2
03:40 72.3 °F 69.5 °F 30.04 in Calm     91% 0 in 0.00 W/m2
03:45 72.2 °F 69.4 °F 30.04 in Calm     91% 0 in 0.00 W/m2
03:50 72.2 °F 69.1 °F 30.04 in Calm     90% 0 in 0.00 W/m2
03:55 72.1 °F 69.3 °F 30.04 in Calm     91% 0 in 0.00 W/m2
04:00 72.1 °F 69.3 °F 30.04 in Calm     91% 0 in 0.00 W/m2
04:05 72.1 °F 69.3 °F 30.04 in Calm     91% 0 in 0.00 W/m2
04:10 72 °F 69.2 °F 30.04 in Calm     91% 0 in 0.00 W/m2
04:15 72 °F 69.2 °F 30.04 in Calm     91% 0 in 0.00 W/m2
04:20 71.9 °F 69.1 °F 30.04 in Calm     91% 0 in 0.00 W/m2
04:25 71.9 °F 69.1 °F 30.04 in Calm     91% 0 in 0.00 W/m2
04:30 71.8 °F 69 °F 30.05 in Calm     91% 0 in 0.00 W/m2
04:35 71.8 °F 69 °F 30.05 in Calm   1 mph 91% 0 in 0.00 W/m2
04:40 71.7 °F 68.9 °F 30.05 in Calm     91% 0 in 0.00 W/m2
04:45 71.7 °F 68.9 °F 30.05 in Calm     91% 0 in 0.00 W/m2
04:50 71.6 °F 68.8 °F 30.05 in Calm     91% 0 in 0.00 W/m2
04:55 71.6 °F 68.8 °F 30.05 in Calm     91% 0 in 0.00 W/m2
05:00 71.7 °F 68.9 °F 30.05 in Calm   1 mph 91% 0 in 0.00 W/m2
05:05 71.7 °F 68.9 °F 30.05 in Calm   1 mph 91% 0 in 0.00 W/m2
05:10 71.7 °F 68.9 °F 30.06 in Calm   1 mph 91% 0 in 0.00 W/m2
05:15 71.8 °F 69.3 °F 30.05 in Calm     92% 0 in 0.00 W/m2
05:20 71.7 °F 69.2 °F 30.05 in Calm     92% 0 in 0.00 W/m2
05:25 71.7 °F 69.2 °F 30.06 in Calm     92% 0 in 0.00 W/m2
05:30 71.7 °F 69.2 °F 30.06 in Calm   1 mph 92% 0 in 0.00 W/m2
05:35 71.7 °F 69.2 °F 30.06 in Calm   1 mph 92% 0 in 0.00 W/m2
05:40 71.7 °F 69.2 °F 30.06 in Calm     92% 0 in 0.00 W/m2
05:45 71.7 °F 69.2 °F 30.06 in Calm     92% 0 in 0.00 W/m2
05:50 71.7 °F 69.2 °F 30.06 in Calm     92% 0 in 2.00 W/m2
05:55 71.7 °F 69.2 °F 30.06 in Calm     92% 0 in 6.00 W/m2
06:00 71.6 °F 69.1 °F 30.07 in Calm     92% 0 in 10.00 W/m2
06:05 71.6 °F 69.1 °F 30.07 in Calm     92% 0 in 11.00 W/m2
06:10 71.6 °F 69.1 °F 30.07 in Calm     92% 0 in 16.00 W/m2
06:15 71.5 °F 69 °F 30.07 in Calm     92% 0 in 15.00 W/m2
06:20 71.5 °F 69 °F 30.07 in Calm     92% 0 in 20.00 W/m2
06:25 71.5 °F 69 °F 30.07 in Calm     92% 0 in 29.00 W/m2
06:30 71.5 °F 69 °F 30.07 in Calm     92% 0 in 38.00 W/m2
06:35 71.5 °F 69 °F 30.07 in Calm     92% 0 in 41.00 W/m2
06:40 71.6 °F 69.5 °F 30.07 in Calm     93% 0 in 77.00 W/m2
06:45 71.9 °F 69.8 °F 30.07 in Calm   1 mph 93% 0 in 105.00 W/m2
06:50 72.2 °F 70.4 °F 30.08 in Calm   2 mph 94% 0 in 124.00 W/m2
06:55 72.4 °F 70.6 °F 30.08 in SSE 1 mph 3 mph 94% 0 in 132.00 W/m2
07:00 72.7 °F 70.9 °F 30.08 in SSE 1 mph 3 mph 94% 0 in 156.00 W/m2
07:05 73 °F 71.2 °F 30.09 in SSE 1 mph 2 mph 94% 0 in 176.00 W/m2
07:10 73.3 °F 71.5 °F 30.09 in SSE 1 mph 3 mph 94% 0 in 190.00 W/m2
07:15 73.6 °F 71.8 °F 30.09 in SSE 2 mph 3 mph 94% 0 in 215.00 W/m2
07:20 73.9 °F 72.1 °F 30.09 in SSE 1 mph 4 mph 94% 0 in 245.00 W/m2
07:25 74.3 °F 72.5 °F 30.09 in SSE 1 mph 3 mph 94% 0 in 262.00 W/m2
07:30 74.7 °F 72.9 °F 30.09 in SSE 1 mph 4 mph 94% 0 in 292.00 W/m2
07:35 75.1 °F 73.2 °F 30.09 in South 2 mph 5 mph 94% 0 in 312.00 W/m2
07:40 75.6 °F 73.4 °F 30.09 in South 1 mph 4 mph 93% 0 in 331.00 W/m2
07:45 76 °F 73.8 °F 30.09 in South 1 mph 4 mph 93% 0 in 348.00 W/m2
07:50 76.5 °F 74 °F 30.09 in South 3 mph 5 mph 92% 0 in 363.00 W/m2
07:55 77 °F 74.2 °F 30.09 in SSE 2 mph 7 mph 91% 0 in 386.00 W/m2
08:00 77.6 °F 74.8 °F 30.09 in SSW 2 mph 5 mph 91% 0 in 407.00 W/m2
08:05 78.1 °F 74.9 °F 30.09 in South 1 mph 5 mph 90% 0 in 427.00 W/m2
08:10 78.6 °F 75.1 °F 30.09 in South 3 mph 10 mph 89% 0 in 447.00 W/m2
08:15 79.2 °F 75 °F 30.09 in SSE 4 mph 10 mph 87% 0 in 468.00 W/m2
08:20 79.9 °F 75.3 °F 30.09 in South 3 mph 6 mph 86% 0 in 503.00 W/m2
08:25 80.3 °F 74.7 °F 30.09 in West 2 mph 5 mph 83% 0 in 529.00 W/m2
08:30 80.6 °F 74.9 °F 30.09 in West 1 mph 5 mph 83% 0 in 528.00 W/m2
08:35 81 °F 74.6 °F 30.09 in SSE 4 mph 9 mph 81% 0 in 545.00 W/m2
08:40 81.3 °F 74.9 °F 30.09 in West 1 mph 3 mph 81% 0 in 585.00 W/m2
08:45 81.6 °F 75.2 °F 30.09 in South 1 mph 5 mph 81% 0 in 589.00 W/m2
08:50 81.8 °F 74.6 °F 30.09 in West 1 mph 7 mph 79% 0 in 595.00 W/m2
08:55 82 °F 74.8 °F 30.09 in South 1 mph 4 mph 79% 0 in 623.00 W/m2
09:00 82.4 °F 74.8 °F 30.09 in SSW 1 mph 6 mph 78% 0 in 667.00 W/m2
09:05 82.6 °F 75 °F 30.09 in SSE 2 mph 4 mph 78% 0 in 718.00 W/m2
09:10 82.8 °F 74.8 °F 30.09 in SW 1 mph 4 mph 77% 0 in 744.00 W/m2
09:15 83.1 °F 75.1 °F 30.08 in SSE 2 mph 4 mph 77% 0 in 800.00 W/m2
09:20 83.4 °F 75 °F 30.09 in South 1 mph 6 mph 76% 0 in 641.00 W/m2
09:25 83.6 °F 74.4 °F 30.09 in West 1 mph 6 mph 74% 0 in 849.00 W/m2
09:30 83.9 °F 74.7 °F 30.08 in South 3 mph 8 mph 74% 0 in 777.00 W/m2
09:35 84.3 °F 74.3 °F 30.08 in SSE 3 mph 7 mph 72% 0 in 790.00 W/m2
09:40 84.6 °F 74.6 °F 30.08 in SSW 3 mph 9 mph 72% 0 in 833.00 W/m2
09:45 85 °F 74.9 °F 30.08 in South 4 mph 8 mph 72% 0 in 886.00 W/m2
09:50 85.5 °F 75.4 °F 30.08 in SSE 5 mph 11 mph 72% 0 in 885.00 W/m2
09:55 85.9 °F 75 °F 30.09 in South 3 mph 9 mph 70% 0 in 157.00 W/m2
10:00 86 °F 75 °F 30.09 in South 2 mph 6 mph 70% 0 in 169.00 W/m2
10:05 86 °F 74.6 °F 30.09 in SSE 2 mph 7 mph 69% 0 in 150.00 W/m2
10:10 85.8 °F 74.9 °F 30.09 in South 1 mph 7 mph 70% 0 in 258.00 W/m2
10:15 85.5 °F 74.1 °F 30.09 in South 2 mph 7 mph 69% 0 in 571.00 W/m2
10:20 85.5 °F 75 °F 30.09 in South 2 mph 7 mph 71% 0 in 922.00 W/m2
10:25 85.6 °F 74.7 °F 30.09 in SSE 3 mph 9 mph 70% 0 in 991.00 W/m2
10:30 86.1 °F 74.3 °F 30.09 in SSE 4 mph 12 mph 68% 0 in 717.00 W/m2
10:35 86.4 °F 74.6 °F 30.09 in SSE 4 mph 12 mph 68% 0 in 583.00 W/m2
10:40 86.7 °F 74.4 °F 30.09 in SSE 3 mph 8 mph 67% 0 in 945.00 W/m2
10:45 87 °F 75.6 °F 30.09 in SSE 3 mph 6 mph 69% 0 in 600.00 W/m2
10:50 87.3 °F 75.4 °F 30.09 in South 2 mph 7 mph 68% 0 in 608.00 W/m2
10:55 87.5 °F 74.7 °F 30.09 in SSE 3 mph 6 mph 66% 0 in 1037.00 W/m2
11:00 87.7 °F 74.9 °F 30.09 in South 4 mph 11 mph 66% 0 in 1041.00 W/m2
11:05 88.1 °F 74.8 °F 30.09 in SSE 4 mph 9 mph 65% 0 in 985.00 W/m2
11:10 88.5 °F 75.2 °F 30.09 in South 3 mph 10 mph 65% 0 in 1046.00 W/m2
11:15 88.6 °F 73.9 °F 30.09 in SSW 3 mph 8 mph 62% 0 in 1006.00 W/m2
11:20 88.9 °F 76 °F 30.08 in SSE 3 mph 10 mph 66% 0 in 985.00 W/m2
11:25 89 °F 75.2 °F 30.08 in South 3 mph 8 mph 64% 0 in 1019.00 W/m2
11:30 89.1 °F 74.8 °F 30.08 in SSE 5 mph 12 mph 63% 0 in 1026.00 W/m2
11:35 89.3 °F 75 °F 30.08 in WSW 2 mph 6 mph 63% 0 in 1010.00 W/m2
11:40 89.3 °F 74.5 °F 30.08 in SSW 2 mph 7 mph 62% 0 in 1031.00 W/m2
11:45 89.3 °F 75.5 °F 30.08 in South 2 mph 11 mph 64% 0 in 1065.00 W/m2
11:50 89.3 °F 73.1 °F 30.08 in SSE 3 mph 10 mph 59% 0 in 1040.00 W/m2
11:55 89.5 °F 73.2 °F 30.08 in SSE 3 mph 13 mph 59% 0 in 1043.00 W/m2
12:00 89.8 °F 73 °F 30.08 in SSW 4 mph 12 mph 58% 0 in 1076.00 W/m2
12:05 90.1 °F 72.8 °F 30.08 in SSE 6 mph 13 mph 57% 0 in 1098.00 W/m2
12:10 90.1 °F 72.8 °F 30.08 in SW 2 mph 10 mph 57% 0 in 1153.00 W/m2
12:15 90 °F 72.7 °F 30.08 in SW 3 mph 15 mph 57% 0 in 1055.00 W/m2
12:20 89.9 °F 72.1 °F 30.08 in WNW 2 mph 7 mph 56% 0 in 1049.00 W/m2
12:25 89.7 °F 72.4 °F 30.08 in SE 3 mph 8 mph 57% 0 in 1056.00 W/m2
12:30 89.7 °F 72.4 °F 30.08 in SSE 3 mph 11 mph 57% 0 in 1089.00 W/m2
12:35 90 °F 71.6 °F 30.08 in West 4 mph 11 mph 55% 0 in 1077.00 W/m2
12:40 90 °F 72.7 °F 30.07 in SSE 2 mph 8 mph 57% 0 in 1053.00 W/m2
12:45 90 °F 71.6 °F 30.08 in West 2 mph 6 mph 55% 0 in 1068.00 W/m2
12:50 90.2 °F 72.3 °F 30.07 in SSE 3 mph 8 mph 56% 0 in 1098.00 W/m2
12:55 90.4 °F 73.1 °F 30.07 in South 2 mph 9 mph 57% 0 in 1096.00 W/m2
13:00 90.5 °F 72.1 °F 30.07 in WNW 2 mph 5 mph 55% 0 in 1102.00 W/m2
13:05 90.6 °F 72.7 °F 30.07 in SSE 3 mph 7 mph 56% 0 in 917.00 W/m2
13:10 90.5 °F 72.1 °F 30.07 in SSE 4 mph 12 mph 55% 0 in 1038.00 W/m2
13:15 90.6 °F 72.7 °F 30.07 in South 4 mph 9 mph 56% 0 in 1001.00 W/m2
13:20 90.7 °F 72.3 °F 30.07 in SSE 5 mph 11 mph 55% 0 in 981.00 W/m2
13:25 90.8 °F 72.9 °F 30.07 in SSE 3 mph 6 mph 56% 0 in 933.00 W/m2
13:30 90.5 °F 72.1 °F 30.06 in South 2 mph 6 mph 55% 0 in 572.00 W/m2
13:35 90.2 °F 72.9 °F 30.06 in SSE 2 mph 7 mph 57% 0 in 881.00 W/m2
13:40 90.1 °F 72.8 °F 30.06 in West 3 mph 8 mph 57% 0 in 566.00 W/m2
13:45 90.1 °F 72.2 °F 30.06 in South 5 mph 13 mph 56% 0 in 904.00 W/m2
13:50 90.1 °F 72.8 °F 30.06 in South 4 mph 10 mph 57% 0 in 798.00 W/m2
13:55 90.2 °F 72.9 °F 30.06 in NW 3 mph 13 mph 57% 0 in 769.00 W/m2
14:00 90.2 °F 72.9 °F 30.05 in SSE 2 mph 9 mph 57% 0 in 735.00 W/m2
14:05 90.4 °F 73.6 °F 30.05 in South 1 mph 6 mph 58% 0 in 773.00 W/m2
14:10 90.4 °F 72.5 °F 30.05 in West 1 mph 4 mph 56% 0 in 737.00 W/m2
14:15 90.3 °F 72.4 °F 30.05 in West 2 mph 9 mph 56% 0 in 795.00 W/m2
14:20 90.3 °F 73 °F 30.05 in West 2 mph 6 mph 57% 0 in 794.00 W/m2
14:25 90.4 °F 73.1 °F 30.04 in SSE 2 mph 8 mph 57% 0 in 843.00 W/m2
14:30 90.4 °F 72.5 °F 30.04 in SSE 2 mph 6 mph 56% 0 in 798.00 W/m2
14:35 90.4 °F 71.5 °F 30.04 in SSE 1 mph 7 mph 54% 0 in 628.00 W/m2
14:40 90.3 °F 72.4 °F 30.04 in West 1 mph 4 mph 56% 0 in 776.00 W/m2
14:45 90.5 °F 73.1 °F 30.04 in South 1 mph 4 mph 57% 0 in 751.00 W/m2
14:50 90.7 °F 73.3 °F 30.03 in SSE 2 mph 7 mph 57% 0 in 788.00 W/m2
14:55 90.9 °F 71.9 °F 30.03 in SW 2 mph 8 mph 54% 0 in 776.00 W/m2
15:00 91 °F 72.5 °F 30.03 in South 2 mph 7 mph 55% 0 in 763.00 W/m2
15:05 91.2 °F 72.7 °F 30.03 in SSE 3 mph 8 mph 55% 0 in 609.00 W/m2
15:10 91.4 °F 71.8 °F 30.03 in SSE 3 mph 7 mph 53% 0 in 740.00 W/m2
15:15 91.4 °F 72.4 °F 30.02 in South 4 mph 10 mph 54% 0 in 710.00 W/m2
15:20 91.6 °F 72.6 °F 30.02 in South 2 mph 6 mph 54% 0 in 585.00 W/m2
15:25 91.5 °F 71.9 °F 30.02 in SSE 3 mph 6 mph 53% 0 in 244.00 W/m2
15:30 91.4 °F 72.4 °F 30.02 in South 4 mph 11 mph 54% 0 in 562.00 W/m2
15:35 91.3 °F 71.7 °F 30.02 in SSE 4 mph 10 mph 53% 0 in 573.00 W/m2
15:40 91.3 °F 71.7 °F 30.02 in South 3 mph 8 mph 53% 0 in 207.00 W/m2
15:45 91.1 °F 71.5 °F 30.02 in SSE 4 mph 9 mph 53% 0 in 145.00 W/m2
15:50 91.1 °F 72.6 °F 30.01 in SSE 3 mph 9 mph 55% 0 in 515.00 W/m2
15:55 91 °F 72 °F 30.01 in SSE 2 mph 6 mph 54% 0 in 235.00 W/m2
16:00 90.9 °F 70.8 °F 30.01 in SSW 2 mph 8 mph 52% 0 in 250.00 W/m2
16:05 90.8 °F 71.3 °F 30.01 in South 2 mph 8 mph 53% 0 in 142.00 W/m2
16:10 90.7 °F 71.2 °F 30.00 in South 3 mph 8 mph 53% 0 in 160.00 W/m2
16:15 90.6 °F 70 °F 30.00 in South 2 mph 9 mph 51% 0 in 206.00 W/m2
16:20 90.5 °F 70.4 °F 30.00 in South 3 mph 9 mph 52% 0 in 114.00 W/m2
16:25 90.4 °F 70.3 °F 30.00 in SSE 3 mph 7 mph 52% 0 in 99.00 W/m2
16:30 90.2 °F 70.2 °F 30.00 in SSE 2 mph 6 mph 52% 0 in 101.00 W/m2
16:35 90.1 °F 69.5 °F 30.00 in SW 3 mph 10 mph 51% 0 in 103.00 W/m2
16:40 90 °F 70.5 °F 30.00 in SSE 2 mph 6 mph 53% 0 in 91.00 W/m2
16:45 89.9 °F 71 °F 30.00 in South 2 mph 7 mph 54% 0 in 110.00 W/m2
16:50 89.7 °F 70.3 °F 30.00 in South 2 mph 8 mph 53% 0 in 87.00 W/m2
16:55 89.7 °F 70.3 °F 30.00 in South 2 mph 5 mph 53% 0 in 81.00 W/m2
17:00 89.5 °F 69.5 °F 30.00 in WNW 1 mph 4 mph 52% 0 in 76.00 W/m2
17:05 89.4 °F 70.5 °F 30.00 in SSE 1 mph 5 mph 54% 0 in 72.00 W/m2
17:10 89.3 °F 69.9 °F 30.00 in SSE 2 mph 10 mph 53% 0 in 77.00 W/m2
17:15 89.2 °F 70.3 °F 30.00 in South 2 mph 7 mph 54% 0 in 87.00 W/m2
17:20 89.1 °F 69.7 °F 30.00 in SSE 2 mph 7 mph 53% 0 in 76.00 W/m2
17:25 89 °F 69.6 °F 30.00 in South 2 mph 7 mph 53% 0 in 76.00 W/m2
17:30 88.8 °F 69.4 °F 30.00 in West 1 mph 7 mph 53% 0 in 79.00 W/m2
17:35 88.7 °F 69.9 °F 30.00 in WNW 1 mph 4 mph 54% 0 in 59.00 W/m2
17:40 88.5 °F 70.2 °F 30.00 in SSE 1 mph 5 mph 55% 0 in 56.00 W/m2
17:45 88.4 °F 70.7 °F 30.00 in SSE 2 mph 8 mph 56% 0 in 66.00 W/m2
17:50 88.3 °F 70.6 °F 30.00 in SSE 2 mph 6 mph 56% 0 in 57.00 W/m2
17:55 88.1 °F 70.4 °F 29.99 in SSE 2 mph 7 mph 56% 0 in 56.00 W/m2
18:00 87.9 °F 70.2 °F 29.99 in South 2 mph 7 mph 56% 0 in 52.00 W/m2
18:05 87.8 °F 70.6 °F 29.99 in SSE 3 mph 8 mph 57% 0 in 52.00 W/m2
18:10 87.7 °F 70.5 °F 29.99 in SSE 3 mph 8 mph 57% 0 in 52.00 W/m2
18:15 87.6 °F 70.4 °F 29.99 in South 2 mph 6 mph 57% 0 in 51.00 W/m2
18:20 87.5 °F 70.9 °F 29.99 in SSE 1 mph 5 mph 58% 0 in 50.00 W/m2
18:25 87.3 °F 70.2 °F 29.99 in South 2 mph 7 mph 57% 0 in 47.00 W/m2
18:30 87.2 °F 70.6 °F 29.99 in SSW 2 mph 6 mph 58% 0 in 47.00 W/m2
18:35 87 °F 69.9 °F 29.99 in SSW 2 mph 6 mph 57% 0 in 43.00 W/m2
18:40 86.8 °F 70.2 °F 29.99 in SSE 2 mph 6 mph 58% 0 in 37.00 W/m2
18:45 86.6 °F 70 °F 29.99 in SSE 2 mph 6 mph 58% 0 in 31.00 W/m2
18:50 86.5 °F 69.9 °F 30.00 in SSE 1 mph 4 mph 58% 0 in 29.00 W/m2
18:55 86.3 °F 69.7 °F 30.00 in Calm   4 mph 58% 0 in 25.00 W/m2
19:00 86.1 °F 69.6 °F 30.01 in Calm   1 mph 58% 0 in 23.00 W/m2
19:05 85.9 °F 69.4 °F 30.01 in Calm   3 mph 58% 0 in 21.00 W/m2
19:10 85.8 °F 69.8 °F 30.02 in Calm     59% 0 in 20.00 W/m2
19:15 85.5 °F 69 °F 30.02 in Calm   3 mph 58% 0 in 19.00 W/m2
19:20 85.3 °F 69.8 °F 30.02 in Calm     60% 0 in 19.00 W/m2
19:25 85.1 °F 70.1 °F 30.02 in Calm   1 mph 61% 0 in 18.00 W/m2
19:30 84.8 °F 69.8 °F 30.02 in Calm     61% 0 in 17.00 W/m2
19:35 84.6 °F 69.6 °F 30.02 in Calm     61% 0 in 11.00 W/m2
19:40 84.4 °F 69.9 °F 30.02 in Calm   1 mph 62% 0 in 6.00 W/m2
19:45 84.2 °F 69.7 °F 30.02 in Calm     62% 0 in 4.00 W/m2
19:50 84 °F 70 °F 30.03 in Calm   3 mph 63% 0 in 0.00 W/m2
19:55 83.7 °F 70.2 °F 30.03 in WSW 3 mph 10 mph 64% 0 in 0.00 W/m2
20:00 83.4 °F 70.8 °F 30.03 in WNW 3 mph 8 mph 66% 0 in 0.00 W/m2
20:05 83.1 °F 71 °F 30.02 in WNW 1 mph 4 mph 67% 0 in 0.00 W/m2
20:10 82.9 °F 71.2 °F 30.02 in WNW 2 mph 7 mph 68% 0 in 0.00 W/m2
20:15 82.5 °F 70.8 °F 30.02 in WNW 1 mph 3 mph 68% 0 in 0.00 W/m2
20:20 82.1 °F 70.9 °F 30.02 in WNW 1 mph 3 mph 69% 0 in 0.00 W/m2
20:25 81.6 °F 70.8 °F 30.02 in WNW 1 mph 3 mph 70% 0 in 0.00 W/m2
20:30 81.3 °F 71 °F 30.02 in Calm   1 mph 71% 0 in 0.00 W/m2
20:35 80.9 °F 70.6 °F 30.03 in Calm     71% 0 in 0.00 W/m2
Albertville, Alabama, USA
Compliments of Weather Underground - 4 mb